sensor_id;sensor_type;location;lat;lon;timestamp;temperature;humidity
43089;DHT22;28709;52.030;5.652;2023-09-30T00:01:43;12.60;99.90
43089;DHT22;28709;52.030;5.652;2023-09-30T00:04:10;12.60;99.90
43089;DHT22;28709;52.030;5.652;2023-09-30T00:06:36;12.60;99.90
43089;DHT22;28709;52.030;5.652;2023-09-30T00:09:01;12.60;99.90
43089;DHT22;28709;52.030;5.652;2023-09-30T00:11:27;12.60;99.90
43089;DHT22;28709;52.030;5.652;2023-09-30T00:13:53;12.60;99.90
43089;DHT22;28709;52.030;5.652;2023-09-30T00:16:18;12.60;99.90
43089;DHT22;28709;52.030;5.652;2023-09-30T00:18:45;12.60;99.90
43089;DHT22;28709;52.030;5.652;2023-09-30T00:21:11;12.60;99.90
43089;DHT22;28709;52.030;5.652;2023-09-30T00:23:37;12.60;99.90
43089;DHT22;28709;52.030;5.652;2023-09-30T00:26:03;12.70;99.90
43089;DHT22;28709;52.030;5.652;2023-09-30T00:28:29;12.60;99.90
43089;DHT22;28709;52.030;5.652;2023-09-30T00:30:54;12.60;99.90
43089;DHT22;28709;52.030;5.652;2023-09-30T00:33:20;12.60;99.90
43089;DHT22;28709;52.030;5.652;2023-09-30T00:35:45;12.50;99.90
43089;DHT22;28709;52.030;5.652;2023-09-30T00:38:11;12.50;99.90
43089;DHT22;28709;52.030;5.652;2023-09-30T00:40:37;12.50;99.90
43089;DHT22;28709;52.030;5.652;2023-09-30T00:43:03;12.50;99.90
43089;DHT22;28709;52.030;5.652;2023-09-30T00:45:30;12.50;99.90
43089;DHT22;28709;52.030;5.652;2023-09-30T00:47:56;12.50;99.90
43089;DHT22;28709;52.030;5.652;2023-09-30T00:50:22;12.50;99.90
43089;DHT22;28709;52.030;5.652;2023-09-30T00:52:48;12.50;99.90
43089;DHT22;28709;52.030;5.652;2023-09-30T00:55:15;12.50;99.90
43089;DHT22;28709;52.030;5.652;2023-09-30T00:57:42;12.40;99.90
43089;DHT22;28709;52.030;5.652;2023-09-30T01:00:10;12.40;99.90
43089;DHT22;28709;52.030;5.652;2023-09-30T01:02:39;12.40;99.90
43089;DHT22;28709;52.030;5.652;2023-09-30T01:05:06;12.40;99.90
43089;DHT22;28709;52.030;5.652;2023-09-30T01:07:33;12.40;99.90
43089;DHT22;28709;52.030;5.652;2023-09-30T01:09:59;12.40;99.90
43089;DHT22;28709;52.030;5.652;2023-09-30T01:12:25;12.40;99.90
43089;DHT22;28709;52.030;5.652;2023-09-30T01:14:56;12.40;99.90
43089;DHT22;28709;52.030;5.652;2023-09-30T01:17:22;12.40;99.90
43089;DHT22;28709;52.030;5.652;2023-09-30T01:19:47;12.40;99.90
43089;DHT22;28709;52.030;5.652;2023-09-30T01:22:15;12.40;99.90
43089;DHT22;28709;52.030;5.652;2023-09-30T01:24:42;12.40;99.90
43089;DHT22;28709;52.030;5.652;2023-09-30T01:27:11;12.40;99.90
43089;DHT22;28709;52.030;5.652;2023-09-30T01:29:38;12.40;99.90
43089;DHT22;28709;52.030;5.652;2023-09-30T01:32:07;12.40;99.90
43089;DHT22;28709;52.030;5.652;2023-09-30T01:34:34;12.40;99.90
43089;DHT22;28709;52.030;5.652;2023-09-30T01:37:00;12.40;99.90
43089;DHT22;28709;52.030;5.652;2023-09-30T01:39:25;12.40;99.90
43089;DHT22;28709;52.030;5.652;2023-09-30T01:41:51;12.30;99.90
43089;DHT22;28709;52.030;5.652;2023-09-30T01:44:16;12.30;99.90
43089;DHT22;28709;52.030;5.652;2023-09-30T01:46:43;12.30;99.90
43089;DHT22;28709;52.030;5.652;2023-09-30T01:49:09;12.30;99.90
43089;DHT22;28709;52.030;5.652;2023-09-30T01:51:35;12.40;99.90
43089;DHT22;28709;52.030;5.652;2023-09-30T01:54:01;12.40;99.90
43089;DHT22;28709;52.030;5.652;2023-09-30T01:56:26;12.40;99.90
43089;DHT22;28709;52.030;5.652;2023-09-30T01:58:52;12.40;99.90
43089;DHT22;28709;52.030;5.652;2023-09-30T02:01:17;12.30;99.90
43089;DHT22;28709;52.030;5.652;2023-09-30T02:03:43;12.30;99.90
43089;DHT22;28709;52.030;5.652;2023-09-30T02:06:09;12.40;99.90
43089;DHT22;28709;52.030;5.652;2023-09-30T02:08:35;12.40;99.90
43089;DHT22;28709;52.030;5.652;2023-09-30T02:11:04;12.40;99.90
43089;DHT22;28709;52.030;5.652;2023-09-30T02:13:33;12.40;99.90
43089;DHT22;28709;52.030;5.652;2023-09-30T02:16:00;12.40;99.90
43089;DHT22;28709;52.030;5.652;2023-09-30T02:18:26;12.40;99.90
43089;DHT22;28709;52.030;5.652;2023-09-30T02:20:51;12.30;99.90
43089;DHT22;28709;52.030;5.652;2023-09-30T02:23:18;12.40;99.90
43089;DHT22;28709;52.030;5.652;2023-09-30T02:25:44;12.40;99.90
43089;DHT22;28709;52.030;5.652;2023-09-30T02:28:10;12.30;99.90
43089;DHT22;28709;52.030;5.652;2023-09-30T02:30:36;12.30;99.90
43089;DHT22;28709;52.030;5.652;2023-09-30T02:33:02;12.30;99.90
43089;DHT22;28709;52.030;5.652;2023-09-30T02:35:28;12.30;99.90
43089;DHT22;28709;52.030;5.652;2023-09-30T02:37:54;12.30;99.90
43089;DHT22;28709;52.030;5.652;2023-09-30T02:40:20;12.30;99.90
43089;DHT22;28709;52.030;5.652;2023-09-30T02:42:46;12.30;99.90
43089;DHT22;28709;52.030;5.652;2023-09-30T02:45:14;12.30;99.90
43089;DHT22;28709;52.030;5.652;2023-09-30T02:47:40;12.30;99.90
43089;DHT22;28709;52.030;5.652;2023-09-30T02:50:07;12.30;99.90
43089;DHT22;28709;52.030;5.652;2023-09-30T02:52:39;12.30;99.90
43089;DHT22;28709;52.030;5.652;2023-09-30T02:55:08;12.30;99.90
43089;DHT22;28709;52.030;5.652;2023-09-30T02:57:33;12.30;99.90
43089;DHT22;28709;52.030;5.652;2023-09-30T03:00:04;12.30;99.90
43089;DHT22;28709;52.030;5.652;2023-09-30T03:02:53;12.30;99.90
43089;DHT22;28709;52.030;5.652;2023-09-30T03:05:19;12.30;99.90
43089;DHT22;28709;52.030;5.652;2023-09-30T03:07:46;12.30;99.90
43089;DHT22;28709;52.030;5.652;2023-09-30T03:10:12;12.30;99.90
43089;DHT22;28709;52.030;5.652;2023-09-30T03:12:46;12.30;99.90
43089;DHT22;28709;52.030;5.652;2023-09-30T03:15:12;12.30;99.90
43089;DHT22;28709;52.030;5.652;2023-09-30T03:17:38;12.30;99.90
43089;DHT22;28709;52.030;5.652;2023-09-30T03:20:04;12.30;99.90
43089;DHT22;28709;52.030;5.652;2023-09-30T03:22:43;12.30;99.90
43089;DHT22;28709;52.030;5.652;2023-09-30T03:25:12;12.40;99.90
43089;DHT22;28709;52.030;5.652;2023-09-30T03:27:38;12.40;99.90
43089;DHT22;28709;52.030;5.652;2023-09-30T03:30:05;12.40;99.90
43089;DHT22;28709;52.030;5.652;2023-09-30T03:32:31;12.40;99.90
43089;DHT22;28709;52.030;5.652;2023-09-30T03:34:59;12.40;99.90
43089;DHT22;28709;52.030;5.652;2023-09-30T03:37:27;12.40;99.90
43089;DHT22;28709;52.030;5.652;2023-09-30T03:39:55;12.40;99.90
43089;DHT22;28709;52.030;5.652;2023-09-30T03:42:21;12.40;99.90
43089;DHT22;28709;52.030;5.652;2023-09-30T03:44:47;12.40;99.90
43089;DHT22;28709;52.030;5.652;2023-09-30T03:47:14;12.40;99.90
43089;DHT22;28709;52.030;5.652;2023-09-30T03:49:41;12.40;99.90
43089;DHT22;28709;52.030;5.652;2023-09-30T03:52:08;12.40;99.90
43089;DHT22;28709;52.030;5.652;2023-09-30T03:54:34;12.40;99.90
43089;DHT22;28709;52.030;5.652;2023-09-30T03:57:00;12.40;99.90
43089;DHT22;28709;52.030;5.652;2023-09-30T03:59:26;12.40;99.90
43089;DHT22;28709;52.030;5.652;2023-09-30T04:01:52;12.40;99.90
43089;DHT22;28709;52.030;5.652;2023-09-30T04:04:20;12.40;99.90
43089;DHT22;28709;52.030;5.652;2023-09-30T04:06:48;12.50;99.90
43089;DHT22;28709;52.030;5.652;2023-09-30T04:09:17;12.50;99.90
43089;DHT22;28709;52.030;5.652;2023-09-30T04:11:42;12.50;99.90
43089;DHT22;28709;52.030;5.652;2023-09-30T04:14:08;12.50;99.90
43089;DHT22;28709;52.030;5.652;2023-09-30T04:16:35;12.40;99.90
43089;DHT22;28709;52.030;5.652;2023-09-30T04:19:01;12.40;99.90
43089;DHT22;28709;52.030;5.652;2023-09-30T04:21:26;12.40;99.90
43089;DHT22;28709;52.030;5.652;2023-09-30T04:23:54;12.40;99.90
43089;DHT22;28709;52.030;5.652;2023-09-30T04:26:19;12.50;99.90
43089;DHT22;28709;52.030;5.652;2023-09-30T04:28:45;12.50;99.90
43089;DHT22;28709;52.030;5.652;2023-09-30T04:31:11;12.50;99.90
43089;DHT22;28709;52.030;5.652;2023-09-30T04:33:38;12.50;99.90
43089;DHT22;28709;52.030;5.652;2023-09-30T04:36:08;12.50;99.90
43089;DHT22;28709;52.030;5.652;2023-09-30T04:38:34;12.50;99.90
43089;DHT22;28709;52.030;5.652;2023-09-30T04:41:03;12.50;99.90
43089;DHT22;28709;52.030;5.652;2023-09-30T04:43:29;12.50;99.90
43089;DHT22;28709;52.030;5.652;2023-09-30T04:45:55;12.50;99.90
43089;DHT22;28709;52.030;5.652;2023-09-30T04:48:23;12.50;99.90
43089;DHT22;28709;52.030;5.652;2023-09-30T04:50:48;12.50;99.90
43089;DHT22;28709;52.030;5.652;2023-09-30T04:53:14;12.60;99.90
43089;DHT22;28709;52.030;5.652;2023-09-30T04:55:43;12.60;99.90
43089;DHT22;28709;52.030;5.652;2023-09-30T04:58:08;12.60;99.90
43089;DHT22;28709;52.030;5.652;2023-09-30T05:00:34;12.50;99.90
43089;DHT22;28709;52.030;5.652;2023-09-30T05:03:00;12.50;99.90
43089;DHT22;28709;52.030;5.652;2023-09-30T05:05:26;12.50;99.90
43089;DHT22;28709;52.030;5.652;2023-09-30T05:07:52;12.50;99.90
43089;DHT22;28709;52.030;5.652;2023-09-30T05:10:18;12.50;99.90
43089;DHT22;28709;52.030;5.652;2023-09-30T05:12:45;12.50;99.90
43089;DHT22;28709;52.030;5.652;2023-09-30T05:15:12;12.60;99.90
43089;DHT22;28709;52.030;5.652;2023-09-30T05:17:38;12.50;99.90
43089;DHT22;28709;52.030;5.652;2023-09-30T05:20:05;12.60;99.90
43089;DHT22;28709;52.030;5.652;2023-09-30T05:22:33;12.50;99.90
43089;DHT22;28709;52.030;5.652;2023-09-30T05:24:59;12.50;99.90
43089;DHT22;28709;52.030;5.652;2023-09-30T05:27:24;12.50;99.90
43089;DHT22;28709;52.030;5.652;2023-09-30T05:29:50;12.50;99.90
43089;DHT22;28709;52.030;5.652;2023-09-30T05:32:16;12.40;99.90
43089;DHT22;28709;52.030;5.652;2023-09-30T05:34:41;12.50;99.90
43089;DHT22;28709;52.030;5.652;2023-09-30T05:37:07;12.50;99.90
43089;DHT22;28709;52.030;5.652;2023-09-30T05:39:32;12.40;99.90
43089;DHT22;28709;52.030;5.652;2023-09-30T05:41:58;12.40;99.90
43089;DHT22;28709;52.030;5.652;2023-09-30T05:44:24;12.40;99.90
43089;DHT22;28709;52.030;5.652;2023-09-30T05:46:53;12.40;99.90
43089;DHT22;28709;52.030;5.652;2023-09-30T05:49:19;12.40;99.90
43089;DHT22;28709;52.030;5.652;2023-09-30T05:51:44;12.40;99.90
43089;DHT22;28709;52.030;5.652;2023-09-30T05:54:12;12.40;99.90
43089;DHT22;28709;52.030;5.652;2023-09-30T05:56:38;12.40;99.90
43089;DHT22;28709;52.030;5.652;2023-09-30T05:59:04;12.30;99.90
43089;DHT22;28709;52.030;5.652;2023-09-30T06:01:31;12.30;99.90
43089;DHT22;28709;52.030;5.652;2023-09-30T06:03:59;12.30;99.90
43089;DHT22;28709;52.030;5.652;2023-09-30T06:06:26;12.30;99.90
43089;DHT22;28709;52.030;5.652;2023-09-30T06:08:53;12.40;99.90
43089;DHT22;28709;52.030;5.652;2023-09-30T06:11:19;12.30;99.90
43089;DHT22;28709;52.030;5.652;2023-09-30T06:13:45;12.40;99.90
43089;DHT22;28709;52.030;5.652;2023-09-30T06:16:14;12.40;99.90
43089;DHT22;28709;52.030;5.652;2023-09-30T06:18:41;12.40;99.90
43089;DHT22;28709;52.030;5.652;2023-09-30T06:21:10;12.40;99.90
43089;DHT22;28709;52.030;5.652;2023-09-30T06:23:36;12.40;99.90
43089;DHT22;28709;52.030;5.652;2023-09-30T06:26:02;12.40;99.90
43089;DHT22;28709;52.030;5.652;2023-09-30T06:28:28;12.40;99.90
43089;DHT22;28709;52.030;5.652;2023-09-30T06:30:56;12.40;99.90
43089;DHT22;28709;52.030;5.652;2023-09-30T06:33:22;12.50;99.90
43089;DHT22;28709;52.030;5.652;2023-09-30T06:35:47;12.50;99.90
43089;DHT22;28709;52.030;5.652;2023-09-30T06:38:19;12.50;99.90
43089;DHT22;28709;52.030;5.652;2023-09-30T06:40:45;12.60;99.90
43089;DHT22;28709;52.030;5.652;2023-09-30T06:43:13;12.60;99.90
43089;DHT22;28709;52.030;5.652;2023-09-30T06:45:44;12.60;99.90
43089;DHT22;28709;52.030;5.652;2023-09-30T06:48:10;12.70;99.90
43089;DHT22;28709;52.030;5.652;2023-09-30T06:50:47;12.70;99.90
43089;DHT22;28709;52.030;5.652;2023-09-30T06:53:14;12.70;99.90
43089;DHT22;28709;52.030;5.652;2023-09-30T06:55:41;12.70;99.90
43089;DHT22;28709;52.030;5.652;2023-09-30T06:58:07;12.80;99.90
43089;DHT22;28709;52.030;5.652;2023-09-30T07:00:34;12.80;99.90
43089;DHT22;28709;52.030;5.652;2023-09-30T07:03:00;12.90;99.90
43089;DHT22;28709;52.030;5.652;2023-09-30T07:05:27;12.90;99.90
43089;DHT22;28709;52.030;5.652;2023-09-30T07:07:56;13.00;99.90
43089;DHT22;28709;52.030;5.652;2023-09-30T07:10:24;13.10;99.90
43089;DHT22;28709;52.030;5.652;2023-09-30T07:12:50;13.10;99.90
43089;DHT22;28709;52.030;5.652;2023-09-30T07:15:16;13.20;99.90
43089;DHT22;28709;52.030;5.652;2023-09-30T07:17:42;13.30;99.90
43089;DHT22;28709;52.030;5.652;2023-09-30T07:20:10;13.30;99.90
43089;DHT22;28709;52.030;5.652;2023-09-30T07:22:36;13.40;99.90
43089;DHT22;28709;52.030;5.652;2023-09-30T07:25:02;13.50;99.90
43089;DHT22;28709;52.030;5.652;2023-09-30T07:27:29;13.60;99.90
43089;DHT22;28709;52.030;5.652;2023-09-30T07:29:54;13.70;99.90
43089;DHT22;28709;52.030;5.652;2023-09-30T07:32:20;13.80;99.90
43089;DHT22;28709;52.030;5.652;2023-09-30T07:34:49;13.90;99.90
43089;DHT22;28709;52.030;5.652;2023-09-30T07:37:15;14.00;99.90
43089;DHT22;28709;52.030;5.652;2023-09-30T07:39:43;14.20;99.90
43089;DHT22;28709;52.030;5.652;2023-09-30T07:42:09;14.40;99.90
43089;DHT22;28709;52.030;5.652;2023-09-30T07:44:35;14.70;99.90
43089;DHT22;28709;52.030;5.652;2023-09-30T07:47:03;14.90;99.90
43089;DHT22;28709;52.030;5.652;2023-09-30T07:49:29;15.10;99.90
43089;DHT22;28709;52.030;5.652;2023-09-30T07:51:55;15.30;99.90
43089;DHT22;28709;52.030;5.652;2023-09-30T07:54:21;15.40;99.90
43089;DHT22;28709;52.030;5.652;2023-09-30T07:56:47;15.60;99.90
43089;DHT22;28709;52.030;5.652;2023-09-30T07:59:12;15.70;99.90
43089;DHT22;28709;52.030;5.652;2023-09-30T08:01:39;15.80;99.90
43089;DHT22;28709;52.030;5.652;2023-09-30T08:04:06;16.00;99.90
43089;DHT22;28709;52.030;5.652;2023-09-30T08:06:31;16.00;99.90
43089;DHT22;28709;52.030;5.652;2023-09-30T08:08:57;16.10;99.90
43089;DHT22;28709;52.030;5.652;2023-09-30T08:11:23;16.20;99.90
43089;DHT22;28709;52.030;5.652;2023-09-30T08:13:53;16.40;99.90
43089;DHT22;28709;52.030;5.652;2023-09-30T08:16:19;16.50;99.90
43089;DHT22;28709;52.030;5.652;2023-09-30T08:18:45;16.60;99.90
43089;DHT22;28709;52.030;5.652;2023-09-30T08:21:11;16.70;99.90
43089;DHT22;28709;52.030;5.652;2023-09-30T08:23:37;16.80;99.90
43089;DHT22;28709;52.030;5.652;2023-09-30T08:26:05;16.90;99.90
43089;DHT22;28709;52.030;5.652;2023-09-30T08:28:31;17.10;99.90
43089;DHT22;28709;52.030;5.652;2023-09-30T08:31:02;17.10;99.90
43089;DHT22;28709;52.030;5.652;2023-09-30T08:33:28;17.30;99.90
43089;DHT22;28709;52.030;5.652;2023-09-30T08:35:56;17.50;99.90
43089;DHT22;28709;52.030;5.652;2023-09-30T08:38:23;17.60;99.90
43089;DHT22;28709;52.030;5.652;2023-09-30T08:40:52;17.70;99.90
43089;DHT22;28709;52.030;5.652;2023-09-30T08:43:20;17.80;99.90
43089;DHT22;28709;52.030;5.652;2023-09-30T08:45:53;17.90;99.90
43089;DHT22;28709;52.030;5.652;2023-09-30T08:48:20;18.00;99.90
43089;DHT22;28709;52.030;5.652;2023-09-30T08:50:48;18.10;99.90
43089;DHT22;28709;52.030;5.652;2023-09-30T08:53:16;18.10;99.90
43089;DHT22;28709;52.030;5.652;2023-09-30T08:55:43;18.20;99.90
43089;DHT22;28709;52.030;5.652;2023-09-30T08:58:11;18.40;99.90
43089;DHT22;28709;52.030;5.652;2023-09-30T09:00:39;18.50;99.90
43089;DHT22;28709;52.030;5.652;2023-09-30T09:03:07;18.60;99.90
43089;DHT22;28709;52.030;5.652;2023-09-30T09:05:33;18.80;99.90
43089;DHT22;28709;52.030;5.652;2023-09-30T09:07:58;18.90;99.90
43089;DHT22;28709;52.030;5.652;2023-09-30T09:10:24;19.00;99.90
43089;DHT22;28709;52.030;5.652;2023-09-30T09:12:57;19.10;99.90
43089;DHT22;28709;52.030;5.652;2023-09-30T09:15:25;19.10;99.90
43089;DHT22;28709;52.030;5.652;2023-09-30T09:17:51;19.20;99.90
43089;DHT22;28709;52.030;5.652;2023-09-30T09:20:22;19.30;99.90
43089;DHT22;28709;52.030;5.652;2023-09-30T09:22:50;19.50;99.90
43089;DHT22;28709;52.030;5.652;2023-09-30T09:25:19;19.60;99.90
43089;DHT22;28709;52.030;5.652;2023-09-30T09:27:45;19.70;99.90
43089;DHT22;28709;52.030;5.652;2023-09-30T09:33:03;19.90;99.90
43089;DHT22;28709;52.030;5.652;2023-09-30T09:35:34;19.90;99.90
43089;DHT22;28709;52.030;5.652;2023-09-30T09:38:07;20.00;99.90
43089;DHT22;28709;52.030;5.652;2023-09-30T09:40:35;20.20;99.90
43089;DHT22;28709;52.030;5.652;2023-09-30T09:43:02;20.50;99.90
43089;DHT22;28709;52.030;5.652;2023-09-30T09:45:34;20.70;99.90
43089;DHT22;28709;52.030;5.652;2023-09-30T09:48:01;20.80;99.90
43089;DHT22;28709;52.030;5.652;2023-09-30T09:50:26;21.00;99.90
43089;DHT22;28709;52.030;5.652;2023-09-30T09:52:53;21.10;99.90
43089;DHT22;28709;52.030;5.652;2023-09-30T09:55:22;21.20;99.90
43089;DHT22;28709;52.030;5.652;2023-09-30T09:57:49;21.30;99.90
43089;DHT22;28709;52.030;5.652;2023-09-30T10:00:23;21.30;99.90
43089;DHT22;28709;52.030;5.652;2023-09-30T10:02:50;21.30;99.90
43089;DHT22;28709;52.030;5.652;2023-09-30T10:05:17;21.50;99.90
43089;DHT22;28709;52.030;5.652;2023-09-30T10:10:21;21.60;99.90
43089;DHT22;28709;52.030;5.652;2023-09-30T10:12:47;21.70;99.90
43089;DHT22;28709;52.030;5.652;2023-09-30T10:18:11;21.90;99.90
43089;DHT22;28709;52.030;5.652;2023-09-30T10:20:41;21.80;99.90
43089;DHT22;28709;52.030;5.652;2023-09-30T10:23:23;21.50;99.90
43089;DHT22;28709;52.030;5.652;2023-09-30T10:25:54;21.40;99.90
43089;DHT22;28709;52.030;5.652;2023-09-30T10:31:12;21.60;99.90
43089;DHT22;28709;52.030;5.652;2023-09-30T10:36:29;22.30;99.90
43089;DHT22;28709;52.030;5.652;2023-09-30T10:38:55;22.40;99.90
43089;DHT22;28709;52.030;5.652;2023-09-30T10:46:52;21.80;99.90
43089;DHT22;28709;52.030;5.652;2023-09-30T10:51:50;21.60;99.90
43089;DHT22;28709;52.030;5.652;2023-09-30T10:54:22;21.50;99.90
43089;DHT22;28709;52.030;5.652;2023-09-30T10:56:51;21.30;99.90
43089;DHT22;28709;52.030;5.652;2023-09-30T10:59:25;21.30;99.90
43089;DHT22;28709;52.030;5.652;2023-09-30T11:01:51;21.20;99.90
43089;DHT22;28709;52.030;5.652;2023-09-30T11:04:18;20.90;99.90
43089;DHT22;28709;52.030;5.652;2023-09-30T11:06:45;20.70;99.90
43089;DHT22;28709;52.030;5.652;2023-09-30T11:09:16;20.50;99.90
43089;DHT22;28709;52.030;5.652;2023-09-30T11:11:47;20.50;99.90
43089;DHT22;28709;52.030;5.652;2023-09-30T11:14:23;20.80;99.90
43089;DHT22;28709;52.030;5.652;2023-09-30T11:16:50;21.30;99.90
43089;DHT22;28709;52.030;5.652;2023-09-30T11:19:16;21.70;99.90
43089;DHT22;28709;52.030;5.652;2023-09-30T11:21:43;22.10;99.90
43089;DHT22;28709;52.030;5.652;2023-09-30T11:24:13;22.30;99.90
43089;DHT22;28709;52.030;5.652;2023-09-30T11:26:39;22.20;99.90
43089;DHT22;28709;52.030;5.652;2023-09-30T11:29:08;22.00;99.90
43089;DHT22;28709;52.030;5.652;2023-09-30T11:31:36;21.70;99.90
43089;DHT22;28709;52.030;5.652;2023-09-30T11:34:02;21.40;99.90
43089;DHT22;28709;52.030;5.652;2023-09-30T11:36:34;21.20;99.90
43089;DHT22;28709;52.030;5.652;2023-09-30T11:39:00;21.20;99.90
43089;DHT22;28709;52.030;5.652;2023-09-30T11:41:35;21.50;99.90
43089;DHT22;28709;52.030;5.652;2023-09-30T11:49:37;22.20;99.90
43089;DHT22;28709;52.030;5.652;2023-09-30T11:52:11;22.30;99.90
43089;DHT22;28709;52.030;5.652;2023-09-30T11:54:38;22.60;99.90
43089;DHT22;28709;52.030;5.652;2023-09-30T11:57:07;22.60;99.90
43089;DHT22;28709;52.030;5.652;2023-09-30T11:59:45;22.50;99.90
43089;DHT22;28709;52.030;5.652;2023-09-30T12:02:12;22.40;99.90
43089;DHT22;28709;52.030;5.652;2023-09-30T12:04:38;22.50;99.90
43089;DHT22;28709;52.030;5.652;2023-09-30T12:07:05;22.60;99.90
43089;DHT22;28709;52.030;5.652;2023-09-30T12:09:32;22.80;99.80
43089;DHT22;28709;52.030;5.652;2023-09-30T12:12:00;22.90;99.70
43089;DHT22;28709;52.030;5.652;2023-09-30T12:14:26;23.10;99.30
43089;DHT22;28709;52.030;5.652;2023-09-30T12:16:55;23.10;99.50
43089;DHT22;28709;52.030;5.652;2023-09-30T12:19:20;23.20;99.60
43089;DHT22;28709;52.030;5.652;2023-09-30T12:21:47;23.40;99.20
43089;DHT22;28709;52.030;5.652;2023-09-30T12:24:17;23.50;98.40
43089;DHT22;28709;52.030;5.652;2023-09-30T12:26:47;23.50;97.60
43089;DHT22;28709;52.030;5.652;2023-09-30T12:29:20;23.40;97.60
43089;DHT22;28709;52.030;5.652;2023-09-30T12:31:49;23.30;97.50
43089;DHT22;28709;52.030;5.652;2023-09-30T12:34:15;23.20;97.50
43089;DHT22;28709;52.030;5.652;2023-09-30T12:36:41;23.10;97.70
43089;DHT22;28709;52.030;5.652;2023-09-30T12:39:08;22.90;96.90
43089;DHT22;28709;52.030;5.652;2023-09-30T12:41:41;22.80;97.40
43089;DHT22;28709;52.030;5.652;2023-09-30T12:44:07;22.70;97.50
43089;DHT22;28709;52.030;5.652;2023-09-30T12:46:33;22.60;97.30
43089;DHT22;28709;52.030;5.652;2023-09-30T12:49:01;22.40;97.30
43089;DHT22;28709;52.030;5.652;2023-09-30T12:51:28;22.50;97.50
43089;DHT22;28709;52.030;5.652;2023-09-30T12:53:53;22.50;96.80
43089;DHT22;28709;52.030;5.652;2023-09-30T12:56:19;22.20;96.30
43089;DHT22;28709;52.030;5.652;2023-09-30T12:58:45;22.00;96.60
43089;DHT22;28709;52.030;5.652;2023-09-30T13:01:10;21.80;96.60
43089;DHT22;28709;52.030;5.652;2023-09-30T13:03:37;21.70;96.80
43089;DHT22;28709;52.030;5.652;2023-09-30T13:06:02;21.70;96.90
43089;DHT22;28709;52.030;5.652;2023-09-30T13:08:29;21.80;97.10
43089;DHT22;28709;52.030;5.652;2023-09-30T13:11:00;21.80;96.90
43089;DHT22;28709;52.030;5.652;2023-09-30T13:13:26;21.70;97.20
43089;DHT22;28709;52.030;5.652;2023-09-30T13:15:51;21.80;97.40
43089;DHT22;28709;52.030;5.652;2023-09-30T13:18:18;21.80;97.20
43089;DHT22;28709;52.030;5.652;2023-09-30T13:20:44;21.70;97.40
43089;DHT22;28709;52.030;5.652;2023-09-30T13:23:09;21.70;97.70
43089;DHT22;28709;52.030;5.652;2023-09-30T13:25:35;21.70;97.90
43089;DHT22;28709;52.030;5.652;2023-09-30T13:28:00;21.90;98.10
43089;DHT22;28709;52.030;5.652;2023-09-30T13:30:27;22.00;97.80
43089;DHT22;28709;52.030;5.652;2023-09-30T13:32:52;22.10;97.70
43089;DHT22;28709;52.030;5.652;2023-09-30T13:35:18;22.00;97.50
43089;DHT22;28709;52.030;5.652;2023-09-30T13:37:44;21.80;97.60
43089;DHT22;28709;52.030;5.652;2023-09-30T13:40:10;21.70;97.80
43089;DHT22;28709;52.030;5.652;2023-09-30T13:42:38;21.60;97.90
43089;DHT22;28709;52.030;5.652;2023-09-30T13:45:04;21.50;97.90
43089;DHT22;28709;52.030;5.652;2023-09-30T13:47:32;21.40;98.10
43089;DHT22;28709;52.030;5.652;2023-09-30T13:49:58;21.30;98.40
43089;DHT22;28709;52.030;5.652;2023-09-30T13:52:24;21.50;98.50
43089;DHT22;28709;52.030;5.652;2023-09-30T13:54:49;21.60;98.50
43089;DHT22;28709;52.030;5.652;2023-09-30T13:57:15;21.70;98.40
43089;DHT22;28709;52.030;5.652;2023-09-30T13:59:41;21.80;98.10
43089;DHT22;28709;52.030;5.652;2023-09-30T14:02:07;21.80;97.90
43089;DHT22;28709;52.030;5.652;2023-09-30T14:04:33;21.60;97.90
43089;DHT22;28709;52.030;5.652;2023-09-30T14:07:01;21.50;98.00
43089;DHT22;28709;52.030;5.652;2023-09-30T14:09:28;21.30;98.00
43089;DHT22;28709;52.030;5.652;2023-09-30T14:11:54;21.30;97.70
43089;DHT22;28709;52.030;5.652;2023-09-30T14:14:20;21.20;97.70
43089;DHT22;28709;52.030;5.652;2023-09-30T14:16:46;21.20;97.90
43089;DHT22;28709;52.030;5.652;2023-09-30T14:19:12;21.20;98.00
43089;DHT22;28709;52.030;5.652;2023-09-30T14:21:39;21.10;98.10
43089;DHT22;28709;52.030;5.652;2023-09-30T14:24:05;21.00;98.10
43089;DHT22;28709;52.030;5.652;2023-09-30T14:26:32;21.00;98.20
43089;DHT22;28709;52.030;5.652;2023-09-30T14:28:58;20.80;98.30
43089;DHT22;28709;52.030;5.652;2023-09-30T14:31:24;20.70;98.40
43089;DHT22;28709;52.030;5.652;2023-09-30T14:33:50;20.70;98.70
43089;DHT22;28709;52.030;5.652;2023-09-30T14:36:17;20.70;98.80
43089;DHT22;28709;52.030;5.652;2023-09-30T14:38:43;20.70;98.70
43089;DHT22;28709;52.030;5.652;2023-09-30T14:41:10;20.60;98.80
43089;DHT22;28709;52.030;5.652;2023-09-30T14:43:38;20.60;98.90
43089;DHT22;28709;52.030;5.652;2023-09-30T14:46:03;20.60;99.00
43089;DHT22;28709;52.030;5.652;2023-09-30T14:48:29;20.50;99.10
43089;DHT22;28709;52.030;5.652;2023-09-30T14:50:55;20.50;99.20
43089;DHT22;28709;52.030;5.652;2023-09-30T14:53:22;20.50;99.30
43089;DHT22;28709;52.030;5.652;2023-09-30T14:55:48;20.40;99.30
43089;DHT22;28709;52.030;5.652;2023-09-30T14:58:14;20.30;99.30
43089;DHT22;28709;52.030;5.652;2023-09-30T15:00:40;20.30;99.40
43089;DHT22;28709;52.030;5.652;2023-09-30T15:03:05;20.10;99.50
43089;DHT22;28709;52.030;5.652;2023-09-30T15:05:34;20.10;99.60
43089;DHT22;28709;52.030;5.652;2023-09-30T15:08:00;20.00;99.60
43089;DHT22;28709;52.030;5.652;2023-09-30T15:10:29;20.00;99.70
43089;DHT22;28709;52.030;5.652;2023-09-30T15:12:55;20.00;99.80
43089;DHT22;28709;52.030;5.652;2023-09-30T15:15:20;20.00;99.70
43089;DHT22;28709;52.030;5.652;2023-09-30T15:17:46;20.00;99.70
43089;DHT22;28709;52.030;5.652;2023-09-30T15:20:12;20.00;99.80
43089;DHT22;28709;52.030;5.652;2023-09-30T15:22:38;20.00;99.80
43089;DHT22;28709;52.030;5.652;2023-09-30T15:25:04;20.00;99.80
43089;DHT22;28709;52.030;5.652;2023-09-30T15:27:30;20.00;99.80
43089;DHT22;28709;52.030;5.652;2023-09-30T15:30:00;20.10;99.90
43089;DHT22;28709;52.030;5.652;2023-09-30T15:32:25;20.10;99.80
43089;DHT22;28709;52.030;5.652;2023-09-30T15:34:51;20.10;99.80
43089;DHT22;28709;52.030;5.652;2023-09-30T15:37:17;20.10;99.80
43089;DHT22;28709;52.030;5.652;2023-09-30T15:39:42;20.00;99.90
43089;DHT22;28709;52.030;5.652;2023-09-30T15:42:09;20.00;99.90
43089;DHT22;28709;52.030;5.652;2023-09-30T15:44:35;19.90;99.90
43089;DHT22;28709;52.030;5.652;2023-09-30T15:47:01;19.90;99.90
43089;DHT22;28709;52.030;5.652;2023-09-30T15:49:26;19.80;99.90
43089;DHT22;28709;52.030;5.652;2023-09-30T15:51:52;19.70;99.90
43089;DHT22;28709;52.030;5.652;2023-09-30T15:54:18;19.70;99.90
43089;DHT22;28709;52.030;5.652;2023-09-30T15:56:44;19.60;99.90